Time,TemperatureF,DewpointF,PressureIn,WindDirection,WindDirectionDegrees,WindSpeedMPH,WindSpeedGustMPH,Humidity,HourlyPrecipIn,Conditions,Clouds,dailyrainin,SoftwareType,DateUTC
2013-10-16 00:00:00,39.6,39.3,29.99,North,0,0.0,0.0,99,0.00,,,0.00,pywws,2013-10-15 23:00:00,
2013-10-16 00:01:00,40.1,39.8,29.99,North,0,0.0,0.7,99,0.00,,,0.00,pywws,2013-10-15 23:01:00,
2013-10-16 00:06:00,39.9,39.7,29.98,North,0,0.0,0.0,99,0.00,,,0.00,pywws,2013-10-15 23:06:00,
2013-10-16 00:11:00,39.7,39.5,29.98,North,0,0.0,0.0,99,0.00,,,0.00,pywws,2013-10-15 23:11:00,
2013-10-16 00:16:00,39.4,39.1,29.99,North,0,0.0,0.0,99,0.00,,,0.00,pywws,2013-10-15 23:16:00,
2013-10-16 00:21:00,39.2,38.9,29.98,North,0,0.0,0.0,99,0.00,,,0.00,pywws,2013-10-15 23:21:00,
2013-10-16 00:26:00,39.2,38.9,29.99,North,0,0.0,0.0,99,0.00,,,0.00,pywws,2013-10-15 23:26:00,
2013-10-16 00:31:00,39.2,38.9,29.99,North,0,0.0,0.0,99,0.00,,,0.00,pywws,2013-10-15 23:31:00,
2013-10-16 00:36:00,39.2,38.9,29.99,North,0,0.0,0.0,99,0.00,,,0.00,pywws,2013-10-15 23:36:00,
2013-10-16 00:41:00,39.2,38.9,29.99,North,0,0.0,0.7,99,0.00,,,0.00,pywws,2013-10-15 23:41:00,
2013-10-16 00:46:00,39.2,38.9,29.98,North,0,0.0,0.0,99,0.00,,,0.00,pywws,2013-10-15 23:46:00,
2013-10-16 01:00:00,39.2,38.9,29.99,North,0,0.0,0.0,99,0.00,,,0.00,pywws,2013-10-16 00:00:00,
2013-10-16 01:01:00,39.0,38.8,29.99,SE,135,0.0,0.7,99,0.00,,,0.00,pywws,2013-10-16 00:01:00,
2013-10-16 01:06:00,39.0,38.8,29.98,SE,135,0.0,0.0,99,0.00,,,0.00,pywws,2013-10-16 00:06:00,
2013-10-16 01:11:00,38.8,38.6,29.98,SE,135,0.0,0.0,99,0.00,,,0.00,pywws,2013-10-16 00:11:00,
2013-10-16 01:16:00,38.7,38.4,29.98,SE,135,0.0,0.0,99,0.00,,,0.00,pywws,2013-10-16 00:16:00,
2013-10-16 01:21:00,38.5,38.2,29.98,SE,135,0.0,0.0,99,0.00,,,0.00,pywws,2013-10-16 00:21:00,
2013-10-16 01:26:00,38.3,38.0,29.98,SE,135,0.0,0.0,99,0.00,,,0.00,pywws,2013-10-16 00:26:00,
2013-10-16 01:31:00,38.1,37.9,29.98,SE,135,0.0,0.0,99,0.00,,,0.00,pywws,2013-10-16 00:31:00,
2013-10-16 01:36:00,38.1,37.9,29.98,SE,135,0.0,0.0,99,0.00,,,0.00,pywws,2013-10-16 00:36:00,
2013-10-16 01:41:00,38.1,37.9,29.98,SE,135,0.0,0.0,99,0.00,,,0.00,pywws,2013-10-16 00:41:00,
2013-10-16 01:46:00,38.1,37.9,29.98,SE,135,0.0,0.0,99,0.00,,,0.00,pywws,2013-10-16 00:46:00,
2013-10-16 02:00:00,38.1,37.9,29.98,SE,135,0.0,0.7,99,0.00,,,0.00,pywws,2013-10-16 01:00:00,
2013-10-16 02:01:00,37.9,37.7,29.98,SE,135,0.0,0.0,99,0.00,,,0.00,pywws,2013-10-16 01:01:00,
2013-10-16 02:06:00,38.1,37.9,29.98,SE,135,0.0,0.0,99,0.00,,,0.00,pywws,2013-10-16 01:06:00,
2013-10-16 02:11:00,38.1,37.9,29.98,SE,135,0.0,0.0,99,0.00,,,0.00,pywws,2013-10-16 01:11:00,
2013-10-16 02:16:00,38.1,37.9,29.98,SE,135,0.0,0.0,99,0.00,,,0.00,pywws,2013-10-16 01:16:00,
2013-10-16 02:21:00,38.3,38.0,29.98,SE,135,0.0,0.0,99,0.00,,,0.00,pywws,2013-10-16 01:21:00,
2013-10-16 02:26:00,38.3,38.0,29.98,SE,135,0.0,0.0,99,0.00,,,0.00,pywws,2013-10-16 01:26:00,
2013-10-16 02:31:00,38.3,38.0,29.98,North,0,0.0,0.0,99,0.00,,,0.00,pywws,2013-10-16 01:31:00,
2013-10-16 02:36:00,38.5,38.2,29.98,North,0,0.0,0.0,99,0.00,,,0.00,pywws,2013-10-16 01:36:00,
2013-10-16 02:41:00,38.3,38.0,29.97,North,0,0.0,0.0,99,0.00,,,0.00,pywws,2013-10-16 01:41:00,
2013-10-16 02:46:00,38.8,38.6,29.97,North,0,0.0,0.0,99,0.00,,,0.00,pywws,2013-10-16 01:46:00,
2013-10-16 03:00:00,39.4,39.1,29.97,NW,315,0.0,0.7,99,0.00,,,0.00,pywws,2013-10-16 02:00:00,
2013-10-16 03:01:00,39.4,39.1,29.97,East,90,0.0,0.0,99,0.00,,,0.00,pywws,2013-10-16 02:01:00,
2013-10-16 03:06:00,38.7,38.4,29.96,East,90,0.0,0.7,99,0.00,,,0.00,pywws,2013-10-16 02:06:00,
2013-10-16 03:11:00,38.7,38.4,29.96,South,180,0.0,0.0,99,0.00,,,0.00,pywws,2013-10-16 02:11:00,
2013-10-16 03:16:00,38.8,38.6,29.96,South,180,0.0,0.7,99,0.00,,,0.00,pywws,2013-10-16 02:16:00,
2013-10-16 03:21:00,40.5,40.2,29.96,South,180,0.0,0.7,99,0.00,,,0.00,pywws,2013-10-16 02:21:00,
2013-10-16 03:26:00,41.9,41.6,29.96,South,180,0.0,0.7,99,0.00,,,0.00,pywws,2013-10-16 02:26:00,
2013-10-16 03:31:00,43.0,42.7,29.96,NE,45,0.0,0.7,99,0.00,,,0.00,pywws,2013-10-16 02:31:00,
2013-10-16 03:36:00,43.5,43.3,29.96,NW,315,0.0,0.0,99,0.00,,,0.00,pywws,2013-10-16 02:36:00,
2013-10-16 03:41:00,44.1,43.8,29.96,North,0,0.0,0.7,99,0.00,,,0.00,pywws,2013-10-16 02:41:00,
2013-10-16 03:46:00,44.2,44.0,29.96,North,0,0.0,0.7,99,0.00,,,0.00,pywws,2013-10-16 02:46:00,
2013-10-16 04:00:00,44.4,44.2,29.96,NW,315,0.0,0.7,99,0.00,,,0.00,pywws,2013-10-16 03:00:00,
2013-10-16 04:01:00,44.8,44.5,29.96,West,270,0.0,0.7,99,0.00,,,0.00,pywws,2013-10-16 03:01:00,
2013-10-16 04:06:00,44.8,44.5,29.96,NE,45,0.0,0.7,99,0.00,,,0.00,pywws,2013-10-16 03:06:00,
2013-10-16 04:11:00,44.6,44.3,29.96,NE,45,0.0,0.0,99,0.00,,,0.00,pywws,2013-10-16 03:11:00,
2013-10-16 04:16:00,44.6,44.3,29.95,SW,225,0.0,0.7,99,0.00,,,0.00,pywws,2013-10-16 03:16:00,
2013-10-16 04:21:00,44.6,44.3,29.94,SE,135,0.0,1.6,99,0.00,,,0.00,pywws,2013-10-16 03:21:00,
2013-10-16 04:26:00,44.2,44.0,29.94,NE,45,0.0,0.7,99,0.00,,,0.00,pywws,2013-10-16 03:26:00,
2013-10-16 04:31:00,44.1,43.8,29.94,North,0,0.0,0.7,99,0.00,,,0.00,pywws,2013-10-16 03:31:00,
2013-10-16 04:36:00,43.9,43.6,29.94,West,270,0.0,0.0,99,0.00,,,0.00,pywws,2013-10-16 03:36:00,
2013-10-16 04:41:00,43.7,43.4,29.94,West,270,0.0,0.0,99,0.00,,,0.00,pywws,2013-10-16 03:41:00,
2013-10-16 04:46:00,43.3,43.1,29.94,West,270,0.0,0.0,99,0.00,,,0.00,pywws,2013-10-16 03:46:00,
2013-10-16 05:00:00,42.8,42.5,29.93,West,270,0.0,0.0,99,0.00,,,0.00,pywws,2013-10-16 04:00:00,
2013-10-16 05:01:00,42.3,42.0,29.93,West,270,0.0,0.0,99,0.00,,,0.00,pywws,2013-10-16 04:01:00,
2013-10-16 05:06:00,42.3,42.0,29.93,West,270,0.0,0.7,99,0.00,,,0.00,pywws,2013-10-16 04:06:00,
2013-10-16 05:11:00,42.3,42.0,29.93,West,270,0.0,0.7,99,0.00,,,0.00,pywws,2013-10-16 04:11:00,
2013-10-16 05:16:00,41.9,41.6,29.93,West,270,0.0,0.0,99,0.00,,,0.00,pywws,2013-10-16 04:16:00,
2013-10-16 05:21:00,41.9,41.6,29.93,West,270,0.0,0.0,99,0.00,,,0.00,pywws,2013-10-16 04:21:00,
2013-10-16 05:26:00,41.7,41.5,29.93,West,270,0.0,0.0,99,0.00,,,0.00,pywws,2013-10-16 04:26:00,
2013-10-16 05:31:00,41.5,41.3,29.92,West,270,0.0,0.0,99,0.00,,,0.00,pywws,2013-10-16 04:31:00,
2013-10-16 05:36:00,41.2,40.9,29.92,West,270,0.0,0.0,99,0.00,,,0.00,pywws,2013-10-16 04:36:00,
2013-10-16 05:41:00,41.5,41.3,29.92,North,0,0.0,0.7,99,0.00,,,0.00,pywws,2013-10-16 04:41:00,
2013-10-16 05:46:00,41.9,41.6,29.92,SW,225,0.0,0.7,99,0.00,,,0.00,pywws,2013-10-16 04:46:00,
2013-10-16 06:00:00,41.9,41.6,29.92,North,0,0.0,0.7,99,0.00,,,0.00,pywws,2013-10-16 05:00:00,
2013-10-16 06:01:00,42.1,41.8,29.91,NW,315,0.0,0.7,99,0.00,,,0.00,pywws,2013-10-16 05:01:00,
2013-10-16 06:06:00,42.1,41.8,29.91,West,270,0.0,0.0,99,0.00,,,0.00,pywws,2013-10-16 05:06:00,
2013-10-16 06:11:00,41.9,41.6,29.91,NW,315,0.0,0.7,99,0.00,,,0.00,pywws,2013-10-16 05:11:00,
2013-10-16 06:16:00,41.7,41.5,29.90,NW,315,0.0,0.0,99,0.00,,,0.00,pywws,2013-10-16 05:16:00,
2013-10-16 06:21:00,41.4,41.1,29.90,NW,315,0.0,0.0,99,0.00,,,0.00,pywws,2013-10-16 05:21:00,
2013-10-16 06:26:00,41.2,40.9,29.90,North,0,0.0,0.0,99,0.00,,,0.00,pywws,2013-10-16 05:26:00,
2013-10-16 06:31:00,41.2,40.9,29.90,North,0,0.0,0.0,99,0.00,,,0.00,pywws,2013-10-16 05:31:00,
2013-10-16 06:41:00,40.8,40.6,29.90,SE,135,0.0,0.7,99,0.00,,,0.00,pywws,2013-10-16 05:41:00,
2013-10-16 06:46:00,40.3,40.0,29.90,NE,45,0.0,0.7,99,0.00,,,0.00,pywws,2013-10-16 05:46:00,
2013-10-16 06:51:00,39.6,39.3,29.89,NE,45,0.0,0.0,99,0.00,,,0.00,pywws,2013-10-16 05:51:00,
2013-10-16 07:06:00,39.0,38.8,29.89,NW,315,0.0,0.0,99,0.00,,,0.00,pywws,2013-10-16 06:06:00,
2013-10-16 07:11:00,39.0,38.8,29.89,NW,315,0.0,0.0,99,0.00,,,0.00,pywws,2013-10-16 06:11:00,
2013-10-16 07:16:00,39.2,38.9,29.89,NW,315,0.0,0.0,99,0.00,,,0.00,pywws,2013-10-16 06:16:00,
2013-10-16 07:21:00,39.4,39.1,29.88,ESE,112,0.0,0.7,99,0.00,,,0.00,pywws,2013-10-16 06:21:00,
2013-10-16 07:26:00,39.6,39.3,29.88,East,90,0.0,0.0,99,0.00,,,0.00,pywws,2013-10-16 06:26:00,
2013-10-16 07:31:00,40.1,39.8,29.88,East,90,0.0,0.0,99,0.00,,,0.00,pywws,2013-10-16 06:31:00,
2013-10-16 07:36:00,40.1,39.8,29.88,NE,45,0.0,0.7,99,0.00,,,0.00,pywws,2013-10-16 06:36:00,
2013-10-16 07:41:00,40.3,40.0,29.88,NE,45,0.0,0.7,99,0.00,,,0.00,pywws,2013-10-16 06:41:00,
2013-10-16 07:46:00,40.8,40.6,29.88,NW,315,0.0,0.7,99,0.00,,,0.00,pywws,2013-10-16 06:46:00,
2013-10-16 08:00:00,40.5,40.2,29.88,North,0,0.0,0.0,99,0.00,,,0.00,pywws,2013-10-16 07:00:00,
2013-10-16 08:01:00,41.0,40.7,29.88,SE,135,0.0,0.0,99,0.00,,,0.00,pywws,2013-10-16 07:01:00,
2013-10-16 08:06:00,41.4,41.1,29.88,North,0,0.0,0.7,99,0.00,,,0.00,pywws,2013-10-16 07:06:00,
2013-10-16 08:11:00,41.7,41.5,29.87,SE,135,0.0,3.1,99,0.00,,,0.00,pywws,2013-10-16 07:11:00,
2013-10-16 08:16:00,42.1,41.8,29.87,SW,225,0.0,0.7,99,0.00,,,0.00,pywws,2013-10-16 07:16:00,
2013-10-16 08:21:00,42.6,42.4,29.87,North,0,0.0,0.7,99,0.00,,,0.00,pywws,2013-10-16 07:21:00,
2013-10-16 08:26:00,42.8,42.5,29.87,SSE,158,0.7,2.2,99,0.00,,,0.00,pywws,2013-10-16 07:26:00,
2013-10-16 08:31:00,43.2,42.9,29.86,North,0,0.0,1.6,99,0.00,,,0.00,pywws,2013-10-16 07:31:00,
2013-10-16 08:36:00,43.5,43.3,29.86,East,90,0.0,1.6,99,0.00,,,0.00,pywws,2013-10-16 07:36:00,
2013-10-16 08:41:00,43.7,43.4,29.86,NW,315,0.0,0.7,99,0.00,,,0.00,pywws,2013-10-16 07:41:00,
2013-10-16 08:46:00,43.9,43.6,29.86,East,90,0.0,1.6,99,0.00,,,0.00,pywws,2013-10-16 07:46:00,
2013-10-16 09:00:00,44.2,44.0,29.86,NW,315,0.7,3.1,99,0.00,,,0.00,pywws,2013-10-16 08:00:00,
2013-10-16 09:01:00,44.4,44.2,29.86,SE,135,0.0,0.7,99,0.00,,,0.00,pywws,2013-10-16 08:01:00,
2013-10-16 09:06:00,44.8,44.5,29.86,North,0,0.0,0.0,99,0.00,,,0.00,pywws,2013-10-16 08:06:00,
2013-10-16 09:11:00,45.1,44.9,29.86,NE,45,0.0,0.7,99,0.00,,,0.00,pywws,2013-10-16 08:11:00,
2013-10-16 09:16:00,45.3,45.1,29.86,North,0,0.0,0.7,99,0.00,,,0.00,pywws,2013-10-16 08:16:00,
2013-10-16 09:21:00,45.3,45.1,29.86,NW,315,0.0,0.0,99,0.00,,,0.00,pywws,2013-10-16 08:21:00,
2013-10-16 09:26:00,45.5,45.2,29.86,NW,315,0.0,0.7,99,0.00,,,0.00,pywws,2013-10-16 08:26:00,
2013-10-16 09:31:00,45.7,45.4,29.86,NW,315,0.0,0.7,99,0.00,,,0.00,pywws,2013-10-16 08:31:00,
2013-10-16 09:36:00,45.9,45.6,29.86,NW,315,0.0,0.7,99,0.00,,,0.00,pywws,2013-10-16 08:36:00,
2013-10-16 09:41:00,45.9,45.6,29.85,North,0,0.0,1.6,99,0.00,,,0.00,pywws,2013-10-16 08:41:00,
2013-10-16 09:46:00,45.7,45.4,29.85,South,180,0.0,0.7,99,0.00,,,0.00,pywws,2013-10-16 08:46:00,
2013-10-16 10:00:00,45.9,45.6,29.85,West,270,0.0,0.7,99,0.00,,,0.00,pywws,2013-10-16 09:00:00,
2013-10-16 10:01:00,46.0,45.8,29.85,East,90,0.0,0.7,99,0.00,,,0.00,pywws,2013-10-16 09:01:00,
2013-10-16 10:06:00,46.2,46.0,29.84,East,90,0.0,0.0,99,0.00,,,0.00,pywws,2013-10-16 09:06:00,
2013-10-16 10:11:00,46.4,46.1,29.84,East,90,0.0,0.0,99,0.00,,,0.00,pywws,2013-10-16 09:11:00,
2013-10-16 10:16:00,46.6,46.3,29.84,North,0,0.0,0.7,99,0.00,,,0.00,pywws,2013-10-16 09:16:00,
2013-10-16 10:21:00,46.6,46.3,29.84,North,0,0.0,0.7,99,0.00,,,0.00,pywws,2013-10-16 09:21:00,
2013-10-16 10:26:00,46.8,46.5,29.84,West,270,0.0,1.6,99,0.00,,,0.00,pywws,2013-10-16 09:26:00,
2013-10-16 10:31:00,46.9,46.7,29.83,North,0,0.0,1.6,99,0.00,,,0.00,pywws,2013-10-16 09:31:00,
2013-10-16 10:36:00,47.3,47.0,29.83,NE,45,0.0,0.0,99,0.00,,,0.00,pywws,2013-10-16 09:36:00,
2013-10-16 10:41:00,47.5,47.2,29.83,NW,315,0.0,0.0,99,0.00,,,0.00,pywws,2013-10-16 09:41:00,
2013-10-16 10:46:00,47.8,47.6,29.82,South,180,0.7,2.2,99,0.00,,,0.00,pywws,2013-10-16 09:46:00,
2013-10-16 11:00:00,48.2,47.9,29.82,SW,225,0.0,3.1,99,0.00,,,0.00,pywws,2013-10-16 10:00:00,
2013-10-16 11:01:00,48.6,48.3,29.82,SE,135,0.0,0.7,99,0.00,,,0.00,pywws,2013-10-16 10:01:00,
2013-10-16 11:06:00,48.6,48.3,29.81,ESE,112,0.7,2.2,99,0.00,,,0.00,pywws,2013-10-16 10:06:00,
2013-10-16 11:11:00,48.6,48.3,29.81,SE,135,0.0,0.7,99,0.00,,,0.00,pywws,2013-10-16 10:11:00,
2013-10-16 11:16:00,48.6,48.3,29.81,SE,135,0.7,2.2,99,0.00,,,0.00,pywws,2013-10-16 10:16:00,
2013-10-16 11:21:00,48.4,48.1,29.81,SE,135,0.0,0.7,99,0.00,,,0.00,pywws,2013-10-16 10:21:00,
2013-10-16 11:26:00,48.6,48.3,29.80,SW,225,0.0,0.7,99,0.00,,,0.00,pywws,2013-10-16 10:26:00,
2013-10-16 11:31:00,48.6,48.3,29.80,South,180,0.7,2.2,99,0.00,,,0.00,pywws,2013-10-16 10:31:00,
2013-10-16 11:36:00,48.7,48.5,29.79,West,270,0.0,0.7,99,0.00,,,0.00,pywws,2013-10-16 10:36:00,
2013-10-16 11:41:00,48.9,48.7,29.79,NE,45,0.7,3.1,99,0.00,,,0.00,pywws,2013-10-16 10:41:00,
2013-10-16 11:46:00,49.1,48.8,29.79,SW,225,0.0,1.6,99,0.00,,,0.00,pywws,2013-10-16 10:46:00,
2013-10-16 12:00:00,49.3,49.0,29.78,SE,135,0.0,0.7,99,0.00,,,0.00,pywws,2013-10-16 11:00:00,
2013-10-16 12:01:00,49.5,49.2,29.78,NW,315,0.7,2.2,99,0.00,,,0.00,pywws,2013-10-16 11:01:00,
2013-10-16 12:06:00,49.6,49.4,29.77,West,270,0.7,1.6,99,0.00,,,0.00,pywws,2013-10-16 11:06:00,
2013-10-16 12:11:00,49.8,49.5,29.77,SW,225,1.6,4.5,99,0.00,,,0.00,pywws,2013-10-16 11:11:00,
2013-10-16 12:16:00,50.0,49.7,29.76,NW,315,0.7,3.1,99,0.00,,,0.00,pywws,2013-10-16 11:16:00,
2013-10-16 12:21:00,50.2,49.9,29.77,ESE,112,1.6,3.8,99,0.00,,,0.00,pywws,2013-10-16 11:21:00,
2013-10-16 12:26:00,50.4,50.1,29.76,South,180,1.6,4.5,99,0.00,,,0.00,pywws,2013-10-16 11:26:00,
2013-10-16 12:31:00,50.7,50.4,29.76,ENE,68,1.6,4.5,99,0.00,,,0.00,pywws,2013-10-16 11:31:00,
2013-10-16 12:36:00,51.1,50.8,29.76,SW,225,1.6,3.8,99,0.00,,,0.00,pywws,2013-10-16 11:36:00,
2013-10-16 12:41:00,51.6,51.3,29.75,SW,225,2.2,5.4,99,0.00,,,0.00,pywws,2013-10-16 11:41:00,
2013-10-16 12:46:00,52.3,52.1,29.75,West,270,1.6,3.8,99,0.00,,,0.00,pywws,2013-10-16 11:46:00,
2013-10-16 13:00:00,53.8,53.5,29.75,SW,225,0.7,2.2,99,0.00,,,0.00,pywws,2013-10-16 12:00:00,
2013-10-16 13:01:00,54.7,54.1,29.75,SW,225,2.2,3.8,98,0.00,,,0.00,pywws,2013-10-16 12:01:00,
2013-10-16 13:06:00,54.7,54.1,29.74,NW,315,0.0,3.1,98,0.00,,,0.00,pywws,2013-10-16 12:06:00,
2013-10-16 13:11:00,54.7,53.6,29.74,North,0,1.6,3.1,96,0.00,,,0.00,pywws,2013-10-16 12:11:00,
2013-10-16 13:16:00,54.3,53.2,29.74,NW,315,1.6,4.5,96,0.00,,,0.00,pywws,2013-10-16 12:16:00,
2013-10-16 13:21:00,54.7,53.8,29.74,NW,315,2.2,5.4,97,0.00,,,0.00,pywws,2013-10-16 12:21:00,
2013-10-16 13:26:00,54.7,53.6,29.73,SW,225,0.7,2.2,96,0.00,,,0.00,pywws,2013-10-16 12:26:00,
2013-10-16 13:31:00,54.9,53.7,29.73,South,180,0.7,3.1,96,0.00,,,0.00,pywws,2013-10-16 12:31:00,
2013-10-16 13:36:00,55.4,54.3,29.72,South,180,0.7,5.4,96,0.00,,,0.00,pywws,2013-10-16 12:36:00,
2013-10-16 13:41:00,55.6,54.2,29.72,NE,45,0.7,2.2,95,0.00,,,0.00,pywws,2013-10-16 12:41:00,
2013-10-16 13:46:00,55.2,53.5,29.72,SW,225,1.6,5.4,94,0.00,,,0.00,pywws,2013-10-16 12:46:00,
2013-10-16 14:01:00,54.7,53.3,29.71,SSW,202,2.2,5.4,95,0.00,,,0.00,pywws,2013-10-16 13:01:00,
2013-10-16 14:06:00,53.6,53.0,29.71,South,180,0.7,3.8,98,0.00,,,0.00,pywws,2013-10-16 13:06:00,
2013-10-16 14:11:00,53.2,53.0,29.71,SE,135,0.7,2.2,99,0.00,,,0.00,pywws,2013-10-16 13:11:00,
2013-10-16 14:16:00,53.1,52.8,29.70,SW,225,0.7,2.2,99,0.00,,,0.00,pywws,2013-10-16 13:16:00,
2013-10-16 14:21:00,53.1,52.8,29.70,NW,315,0.7,3.1,99,0.00,,,0.00,pywws,2013-10-16 13:21:00,
2013-10-16 14:26:00,53.2,52.7,29.70,South,180,1.6,3.1,98,0.00,,,0.00,pywws,2013-10-16 13:26:00,
2013-10-16 14:31:00,53.2,52.7,29.70,WSW,248,0.0,2.2,98,0.00,,,0.00,pywws,2013-10-16 13:31:00,
2013-10-16 14:36:00,53.2,52.7,29.70,SE,135,1.6,3.8,98,0.00,,,0.00,pywws,2013-10-16 13:36:00,
2013-10-16 14:41:00,53.4,52.6,29.69,SW,225,2.2,4.5,97,0.00,,,0.00,pywws,2013-10-16 13:41:00,
2013-10-16 14:46:00,53.4,52.3,29.69,West,270,1.6,3.8,96,0.00,,,0.00,pywws,2013-10-16 13:46:00,
2013-10-16 14:51:00,53.4,52.3,29.69,NE,45,1.6,3.1,96,0.00,,,0.00,pywws,2013-10-16 13:51:00,
2013-10-16 15:01:00,53.4,52.3,29.68,NW,315,2.2,4.5,96,0.00,,,0.00,pywws,2013-10-16 14:01:00,
2013-10-16 15:02:00,53.4,52.3,29.68,West,270,1.6,5.4,96,0.00,,,0.00,pywws,2013-10-16 14:02:00,
2013-10-16 15:06:00,53.4,52.3,29.68,NW,315,0.7,1.6,96,0.00,,,0.00,pywws,2013-10-16 14:06:00,
2013-10-16 15:11:00,53.2,52.1,29.68,SW,225,0.7,4.5,96,0.00,,,0.00,pywws,2013-10-16 14:11:00,
2013-10-16 15:16:00,53.2,52.1,29.67,North,0,0.7,2.2,96,0.00,,,0.00,pywws,2013-10-16 14:16:00,
2013-10-16 15:21:00,53.2,52.1,29.68,NE,45,0.0,4.5,96,0.00,,,0.00,pywws,2013-10-16 14:21:00,
2013-10-16 15:26:00,53.1,51.9,29.68,SW,225,0.0,0.7,96,0.00,,,0.00,pywws,2013-10-16 14:26:00,
2013-10-16 15:31:00,53.1,52.2,29.67,South,180,0.7,4.5,97,0.00,,,0.00,pywws,2013-10-16 14:31:00,
2013-10-16 15:36:00,53.1,51.9,29.67,East,90,0.7,3.8,96,0.00,,,0.00,pywws,2013-10-16 14:36:00,
2013-10-16 15:41:00,53.1,51.9,29.67,NNE,22,0.7,3.1,96,0.00,,,0.00,pywws,2013-10-16 14:41:00,
2013-10-16 15:46:00,53.1,52.2,29.67,East,90,1.6,6.0,97,0.00,,,0.00,pywws,2013-10-16 14:46:00,
2013-10-16 15:51:00,53.1,52.2,29.66,NE,45,1.6,3.1,97,0.00,,,0.00,pywws,2013-10-16 14:51:00,
2013-10-16 15:56:00,53.1,52.2,29.66,SW,225,0.7,2.2,97,0.00,,,0.00,pywws,2013-10-16 14:56:00,
2013-10-16 16:01:00,52.9,52.1,29.66,North,0,0.7,3.8,97,0.00,,,0.00,pywws,2013-10-16 15:01:00,
2013-10-16 16:06:00,52.7,51.9,29.66,SE,135,0.7,2.2,97,0.00,,,0.00,pywws,2013-10-16 15:06:00,
2013-10-16 16:11:00,52.7,51.9,29.66,ENE,68,1.6,3.8,97,0.00,,,0.00,pywws,2013-10-16 15:11:00,
2013-10-16 16:16:00,52.5,52.0,29.65,ENE,68,0.7,3.1,98,0.00,,,0.00,pywws,2013-10-16 15:16:00,
2013-10-16 16:21:00,52.5,52.0,29.65,SE,135,0.7,3.1,98,0.00,,,0.00,pywws,2013-10-16 15:21:00,
2013-10-16 16:26:00,52.3,52.1,29.65,NE,45,0.7,2.2,99,0.00,,,0.00,pywws,2013-10-16 15:26:00,
2013-10-16 16:31:00,52.3,52.1,29.65,SE,135,1.6,3.1,99,0.00,,,0.00,pywws,2013-10-16 15:31:00,
2013-10-16 16:36:00,52.3,52.1,29.65,NE,45,0.7,1.6,99,0.00,,,0.00,pywws,2013-10-16 15:36:00,
2013-10-16 16:41:00,52.2,51.9,29.65,South,180,0.0,1.6,99,0.00,,,0.00,pywws,2013-10-16 15:41:00,
2013-10-16 16:46:00,52.2,51.9,29.64,SW,225,2.2,3.8,99,0.00,,,0.00,pywws,2013-10-16 15:46:00,
2013-10-16 16:51:00,52.0,51.7,29.63,West,270,0.7,2.2,99,0.00,,,0.00,pywws,2013-10-16 15:51:00,
2013-10-16 16:56:00,52.0,51.7,29.64,SW,225,0.7,3.1,99,0.00,,,0.00,pywws,2013-10-16 15:56:00,
2013-10-16 17:01:00,51.8,51.5,29.63,ESE,112,1.6,2.2,99,0.00,,,0.00,pywws,2013-10-16 16:01:00,
2013-10-16 17:06:00,51.6,51.3,29.62,SW,225,1.6,3.8,99,0.00,,,0.00,pywws,2013-10-16 16:06:00,
2013-10-16 17:11:00,51.4,51.2,29.62,South,180,1.6,3.1,99,0.00,,,0.00,pywws,2013-10-16 16:11:00,
2013-10-16 17:16:00,51.4,51.2,29.62,East,90,0.7,2.2,99,0.00,,,0.00,pywws,2013-10-16 16:16:00,
2013-10-16 17:21:00,51.4,51.2,29.62,South,180,1.6,3.1,99,0.00,,,0.00,pywws,2013-10-16 16:21:00,
2013-10-16 17:26:00,51.4,51.2,29.62,SW,225,1.6,3.1,99,0.00,,,0.00,pywws,2013-10-16 16:26:00,
2013-10-16 17:31:00,51.3,51.0,29.61,WNW,292,1.6,3.8,99,0.00,,,0.00,pywws,2013-10-16 16:31:00,
2013-10-16 17:36:00,51.1,50.8,29.61,East,90,1.6,3.8,99,0.00,,,0.00,pywws,2013-10-16 16:36:00,
2013-10-16 17:41:00,51.1,50.8,29.61,West,270,3.8,6.9,99,0.00,,,0.00,pywws,2013-10-16 16:41:00,
2013-10-16 17:46:00,51.1,50.8,29.61,SSE,158,1.6,4.5,99,0.00,,,0.00,pywws,2013-10-16 16:46:00,
2013-10-16 18:01:00,51.3,51.0,29.61,North,0,2.2,4.5,99,0.00,,,0.00,pywws,2013-10-16 17:01:00,
2013-10-16 18:06:00,51.1,50.8,29.60,East,90,3.1,5.4,99,0.00,,,0.00,pywws,2013-10-16 17:06:00,
2013-10-16 18:11:00,51.1,50.8,29.60,South,180,2.2,5.4,99,0.00,,,0.00,pywws,2013-10-16 17:11:00,
2013-10-16 18:16:00,51.1,50.8,29.60,East,90,2.2,4.5,99,0.00,,,0.00,pywws,2013-10-16 17:16:00,
2013-10-16 18:21:00,50.9,50.6,29.60,North,0,1.6,3.1,99,0.00,,,0.00,pywws,2013-10-16 17:21:00,
2013-10-16 18:26:00,50.9,50.6,29.60,East,90,0.7,2.2,99,0.00,,,0.00,pywws,2013-10-16 17:26:00,
2013-10-16 18:31:00,50.9,50.6,29.60,South,180,0.7,2.2,99,0.00,,,0.00,pywws,2013-10-16 17:31:00,
2013-10-16 18:36:00,50.7,50.4,29.60,WNW,292,0.7,3.1,99,0.00,,,0.00,pywws,2013-10-16 17:36:00,
2013-10-16 18:41:00,50.7,50.4,29.59,East,90,0.7,3.1,99,0.00,,,0.00,pywws,2013-10-16 17:41:00,
2013-10-16 18:46:00,50.7,50.4,29.59,East,90,0.7,2.2,99,0.00,,,0.00,pywws,2013-10-16 17:46:00,
2013-10-16 19:00:00,50.7,50.4,29.59,SW,225,0.7,3.8,99,0.00,,,0.00,pywws,2013-10-16 18:00:00,
2013-10-16 19:01:00,50.5,50.3,29.59,NE,45,0.7,3.1,99,0.00,,,0.00,pywws,2013-10-16 18:01:00,
2013-10-16 19:06:00,50.5,50.3,29.59,South,180,0.7,2.2,99,0.00,,,0.00,pywws,2013-10-16 18:06:00,
2013-10-16 19:11:00,50.5,50.3,29.59,NW,315,0.7,2.2,99,0.00,,,0.00,pywws,2013-10-16 18:11:00,
2013-10-16 19:16:00,50.5,50.3,29.59,East,90,0.7,1.6,99,0.00,,,0.00,pywws,2013-10-16 18:16:00,
2013-10-16 19:21:00,50.5,50.3,29.59,East,90,0.0,1.6,99,0.00,,,0.00,pywws,2013-10-16 18:21:00,
2013-10-16 19:26:00,50.5,50.3,29.59,NE,45,1.6,3.1,99,0.00,,,0.00,pywws,2013-10-16 18:26:00,
2013-10-16 19:31:00,50.5,50.3,29.59,SE,135,0.0,1.6,99,0.00,,,0.00,pywws,2013-10-16 18:31:00,
2013-10-16 19:36:00,50.5,50.3,29.59,East,90,1.6,3.1,99,0.00,,,0.00,pywws,2013-10-16 18:36:00,
2013-10-16 19:41:00,50.5,50.3,29.59,SE,135,0.7,2.2,99,0.00,,,0.00,pywws,2013-10-16 18:41:00,
2013-10-16 19:46:00,50.5,50.3,29.58,SE,135,0.7,2.2,99,0.00,,,0.00,pywws,2013-10-16 18:46:00,
2013-10-16 20:00:00,50.7,50.4,29.58,East,90,0.7,2.2,99,0.00,,,0.00,pywws,2013-10-16 19:00:00,
2013-10-16 20:01:00,50.7,50.4,29.58,East,90,0.7,2.2,99,0.00,,,0.00,pywws,2013-10-16 19:01:00,
2013-10-16 20:06:00,50.7,50.4,29.57,East,90,1.6,3.1,99,0.00,,,0.00,pywws,2013-10-16 19:06:00,
2013-10-16 20:11:00,50.4,50.1,29.57,South,180,1.6,3.8,99,0.00,,,0.00,pywws,2013-10-16 19:11:00,
2013-10-16 20:16:00,50.4,50.1,29.57,SW,225,0.7,2.2,99,0.00,,,0.00,pywws,2013-10-16 19:16:00,
2013-10-16 20:21:00,50.2,49.9,29.57,East,90,0.7,2.2,99,0.00,,,0.00,pywws,2013-10-16 19:21:00,
2013-10-16 20:26:00,50.2,49.9,29.57,SE,135,0.7,3.1,99,0.00,,,0.00,pywws,2013-10-16 19:26:00,
2013-10-16 20:31:00,50.0,49.7,29.57,SE,135,1.6,2.2,99,0.00,,,0.00,pywws,2013-10-16 19:31:00,
2013-10-16 20:36:00,49.8,49.5,29.57,East,90,0.0,1.6,99,0.00,,,0.00,pywws,2013-10-16 19:36:00,
2013-10-16 20:41:00,49.8,49.5,29.57,NE,45,1.6,3.8,99,0.00,,,0.00,pywws,2013-10-16 19:41:00,
2013-10-16 20:46:00,50.2,49.9,29.57,SE,135,3.1,6.0,99,0.00,,,0.00,pywws,2013-10-16 19:46:00,
2013-10-16 21:00:00,50.4,50.1,29.57,WNW,292,4.5,10.7,99,0.00,,,0.00,pywws,2013-10-16 20:00:00,
2013-10-16 21:01:00,50.5,50.3,29.57,East,90,4.5,8.3,99,0.00,,,0.00,pywws,2013-10-16 20:01:00,
2013-10-16 21:06:00,50.5,50.3,29.57,East,90,1.6,3.8,99,0.00,,,0.00,pywws,2013-10-16 20:06:00,
2013-10-16 21:11:00,50.5,50.3,29.57,South,180,1.6,4.5,99,0.00,,,0.00,pywws,2013-10-16 20:11:00,
2013-10-16 21:16:00,50.4,50.1,29.58,SW,225,2.2,6.9,99,0.00,,,0.00,pywws,2013-10-16 20:16:00,
2013-10-16 21:21:00,50.2,49.9,29.58,West,270,0.7,2.2,99,0.00,,,0.00,pywws,2013-10-16 20:21:00,
2013-10-16 21:26:00,50.2,49.9,29.58,SW,225,0.7,2.2,99,0.00,,,0.00,pywws,2013-10-16 20:26:00,
2013-10-16 21:31:00,50.2,49.9,29.58,SE,135,0.7,2.2,99,0.00,,,0.00,pywws,2013-10-16 20:31:00,
2013-10-16 21:36:00,50.2,49.9,29.58,NW,315,1.6,3.8,99,0.00,,,0.00,pywws,2013-10-16 20:36:00,
2013-10-16 21:41:00,50.0,49.7,29.58,SE,135,0.7,3.1,99,0.00,,,0.00,pywws,2013-10-16 20:41:00,
2013-10-16 21:46:00,49.8,49.5,29.58,SE,135,2.2,3.8,99,0.00,,,0.00,pywws,2013-10-16 20:46:00,
2013-10-16 22:00:00,49.8,49.5,29.58,SE,135,0.7,3.1,99,0.00,,,0.00,pywws,2013-10-16 21:00:00,
2013-10-16 22:01:00,49.6,49.4,29.59,SE,135,1.6,3.1,99,0.00,,,0.00,pywws,2013-10-16 21:01:00,
2013-10-16 22:06:00,49.6,49.4,29.59,South,180,1.6,2.2,99,0.00,,,0.00,pywws,2013-10-16 21:06:00,
2013-10-16 22:11:00,49.5,49.2,29.59,SE,135,0.7,1.6,99,0.00,,,0.00,pywws,2013-10-16 21:11:00,
2013-10-16 22:16:00,49.5,49.2,29.59,SE,135,0.7,1.6,99,0.00,,,0.00,pywws,2013-10-16 21:16:00,
2013-10-16 22:21:00,49.5,49.2,29.59,SE,135,0.7,3.1,99,0.00,,,0.00,pywws,2013-10-16 21:21:00,
2013-10-16 22:26:00,49.6,49.4,29.59,SE,135,2.2,4.5,99,0.00,,,0.00,pywws,2013-10-16 21:26:00,
2013-10-16 22:31:00,49.6,49.4,29.59,East,90,1.6,3.8,99,0.00,,,0.00,pywws,2013-10-16 21:31:00,
2013-10-16 22:36:00,49.6,49.4,29.59,SW,225,0.7,3.1,99,0.00,,,0.00,pywws,2013-10-16 21:36:00,
2013-10-16 22:41:00,49.3,49.0,29.59,East,90,0.7,2.2,99,0.00,,,0.00,pywws,2013-10-16 21:41:00,
2013-10-16 22:46:00,49.3,49.0,29.59,South,180,0.7,3.1,99,0.00,,,0.00,pywws,2013-10-16 21:46:00,
2013-10-16 23:00:00,49.1,48.8,29.60,South,180,1.6,2.2,99,0.00,,,0.00,pywws,2013-10-16 22:00:00,
2013-10-16 23:01:00,49.1,48.8,29.61,SE,135,0.7,1.6,99,0.00,,,0.00,pywws,2013-10-16 22:01:00,
2013-10-16 23:06:00,48.9,48.7,29.60,East,90,0.0,0.7,99,0.00,,,0.00,pywws,2013-10-16 22:06:00,
2013-10-16 23:11:00,48.7,48.5,29.60,SE,135,0.7,2.2,99,0.00,,,0.00,pywws,2013-10-16 22:11:00,
2013-10-16 23:16:00,48.7,48.5,29.60,NW,315,0.0,0.7,99,0.00,,,0.00,pywws,2013-10-16 22:16:00,
2013-10-16 23:21:00,48.7,48.5,29.60,SE,135,0.7,2.2,99,0.00,,,0.00,pywws,2013-10-16 22:21:00,
2013-10-16 23:26:00,49.1,48.8,29.60,SE,135,1.6,5.4,99,0.00,,,0.00,pywws,2013-10-16 22:26:00,
2013-10-16 23:31:00,49.5,49.2,29.60,SSE,158,0.7,3.1,99,0.00,,,0.00,pywws,2013-10-16 22:31:00,
2013-10-16 23:36:00,49.6,49.4,29.60,SE,135,1.6,3.1,99,0.00,,,0.00,pywws,2013-10-16 22:36:00,
2013-10-16 23:41:00,49.8,49.5,29.61,South,180,2.2,6.0,99,0.00,,,0.00,pywws,2013-10-16 22:41:00,
2013-10-16 23:46:00,50.0,49.7,29.61,SE,135,3.1,5.4,99,0.00,,,0.00,pywws,2013-10-16 22:46:00,